createdAt,value
2019-03-28T00:01:30.323Z,103486.33
2019-03-28T00:04:31.971Z,103484.28
2019-03-28T00:06:51.588Z,103490.48
2019-03-28T00:09:34.386Z,103486.59
2019-03-28T00:12:15.157Z,103488.27
2019-03-28T00:14:52.327Z,103484.37
2019-03-28T00:17:47.273Z,103479.44
2019-03-28T00:20:20.445Z,103483.27
2019-03-28T00:22:59.714Z,103487.72
2019-03-28T00:28:55.743Z,103481.06
2019-03-28T00:31:47.757Z,103485.11
2019-03-28T00:34:26.154Z,103487.06
2019-03-28T00:37:07.634Z,103487.29
2019-03-28T00:40:09.206Z,103488.09
2019-03-28T00:42:49.969Z,103486.34
2019-03-28T00:46:01.013Z,103487.11
2019-03-28T00:48:54.493Z,103484.61
2019-03-28T00:51:44.373Z,103487.80
2019-03-28T00:54:32.567Z,103480.63
2019-03-28T00:57:14.889Z,103480.50
2019-03-28T00:59:57.690Z,103478.46
2019-03-28T01:02:22.483Z,103479.43
2019-03-28T01:04:52.432Z,103478.98
2019-03-28T01:07:25.804Z,103477.19
2019-03-28T01:10:23.428Z,103477.84
2019-03-28T01:13:35.451Z,103474.24
2019-03-28T01:19:08.198Z,103474.27
2019-03-28T01:21:38.103Z,103471.24
2019-03-28T01:24:08.701Z,103473.58
2019-03-28T01:26:59.099Z,103477.44
2019-03-28T01:29:31.063Z,103478.71
2019-03-28T01:32:03.022Z,103473.69
2019-03-28T01:34:59.661Z,103472.84
2019-03-28T01:38:15.139Z,103467.02
2019-03-28T01:40:48.199Z,103469.02
2019-03-28T01:43:36.975Z,103471.62
2019-03-28T01:46:12.373Z,103469.77
2019-03-28T01:49:12.152Z,103468.38
2019-03-28T01:52:00.626Z,103468.47
2019-03-28T01:54:56.405Z,103473.41
2019-03-28T01:57:37.816Z,103472.53
2019-03-28T02:00:19.864Z,103478.20
2019-03-28T02:02:56.154Z,103473.23
2019-03-28T02:05:40.219Z,103473.42
2019-03-28T02:08:31.015Z,103473.78
2019-03-28T02:11:21.807Z,103469.79
2019-03-28T02:14:12.351Z,103467.58
2019-03-28T02:17:05.758Z,103468.20
2019-03-28T02:20:03.933Z,103466.83
2019-03-28T02:23:01.188Z,103464.52
2019-03-28T02:25:48.438Z,103470.20
2019-03-28T02:28:37.727Z,103464.72
2019-03-28T02:31:23.651Z,103461.61
2019-03-28T02:34:05.777Z,103461.18
2019-03-28T02:40:04.075Z,103469.48
2019-03-28T02:42:37.408Z,103466.75
2019-03-28T02:46:01.927Z,103468.56
2019-03-28T02:48:16.023Z,103464.00
2019-03-28T02:51:05.555Z,103461.20
2019-03-28T02:53:43.556Z,103462.76
2019-03-28T02:56:27.795Z,103456.56
2019-03-28T03:02:04.957Z,103463.41
2019-03-28T03:04:49.254Z,103459.19
2019-03-28T03:07:50.702Z,103457.63
2019-03-28T03:09:59.442Z,103459.20
2019-03-28T03:15:40.259Z,103451.02
2019-03-28T03:18:21.225Z,103458.70
2019-03-28T03:23:57.268Z,103457.80
2019-03-28T03:26:24.136Z,103460.75
2019-03-28T03:29:02.803Z,103462.98
2019-03-28T03:31:53.609Z,103463.73
2019-03-28T03:34:40.846Z,103464.41
2019-03-28T03:37:13.134Z,103460.45
2019-03-28T03:40:50.105Z,103464.05
2019-03-28T03:42:27.803Z,103469.98
2019-03-28T03:45:02.877Z,103469.31
2019-03-28T03:47:43.043Z,103469.25
2019-03-28T03:50:39.194Z,103463.67
2019-03-28T03:53:09.942Z,103465.40
2019-03-28T03:55:45.091Z,103465.07
2019-03-28T03:58:33.059Z,103463.13
2019-03-28T04:04:04.695Z,103464.91
2019-03-28T04:06:40.493Z,103465.78
2019-03-28T04:09:34.916Z,103466.14
2019-03-28T04:12:12.074Z,103467.27
2019-03-28T04:17:51.167Z,103469.55
2019-03-28T04:20:35.765Z,103474.94
2019-03-28T04:23:18.067Z,103478.41
2019-03-28T04:26:12.086Z,103477.24
2019-03-28T04:28:36.846Z,103474.39
2019-03-28T04:31:22.232Z,103477.34
2019-03-28T04:34:06.207Z,103477.70
2019-03-28T04:36:52.033Z,103482.53
2019-03-28T04:42:37.509Z,103490.84
2019-03-28T04:45:27.060Z,103487.40
2019-03-28T04:48:27.256Z,103488.86
2019-03-28T04:51:06.556Z,103491.78
2019-03-28T04:57:08.969Z,103500.34
2019-03-28T04:59:39.450Z,103498.98
2019-03-28T05:02:17.920Z,103499.28
2019-03-28T05:04:48.776Z,103499.34
2019-03-28T05:07:18.542Z,103501.06
2019-03-28T05:09:47.975Z,103500.94
2019-03-28T05:12:32.891Z,103504.34
2019-03-28T05:15:28.242Z,103507.91
2019-03-28T05:17:48.689Z,103509.91
2019-03-28T05:20:27.403Z,103510.89
2019-03-28T05:23:08.189Z,103511.77
2019-03-28T05:25:40.723Z,103518.62
2019-03-28T05:32:02.087Z,103528.06
2019-03-28T05:34:31.451Z,103534.81
2019-03-28T05:37:00.976Z,103538.51
2019-03-28T05:39:30.547Z,103543.23
2019-03-28T05:41:59.982Z,103548.30
2019-03-28T05:44:51.488Z,103549.55
2019-03-28T05:51:01.666Z,103550.92
2019-03-28T05:53:03.964Z,103545.25
2019-03-28T05:56:30.372Z,103549.44
2019-03-28T06:02:48.505Z,103552.63
2019-03-28T06:06:05.464Z,103547.04
2019-03-28T06:08:34.997Z,103553.05
2019-03-28T06:11:04.441Z,103553.43
2019-03-28T06:13:33.882Z,103553.85
2019-03-28T06:16:03.346Z,103553.00
2019-03-28T06:18:32.791Z,103560.60
2019-03-28T06:21:02.236Z,103562.55
2019-03-28T06:23:31.694Z,103564.98
2019-03-28T06:26:01.145Z,103559.72
2019-03-28T06:28:30.606Z,103563.48
2019-03-28T06:31:00.054Z,103563.17
2019-03-28T06:33:29.493Z,103559.57
2019-03-28T06:36:02.032Z,103562.13
2019-03-28T06:38:30.121Z,103569.99
2019-03-28T06:40:59.561Z,103568.27
2019-03-28T06:43:29.292Z,103567.05
2019-03-28T06:45:57.998Z,103564.23
2019-03-28T06:48:27.466Z,103564.78
2019-03-28T06:50:56.930Z,103571.25
2019-03-28T06:53:26.392Z,103574.97
2019-03-28T06:55:55.832Z,103574.53
2019-03-28T06:58:25.284Z,103579.56
2019-03-28T07:01:01.638Z,103575.34
2019-03-28T07:04:00.309Z,103569.64
2019-03-28T07:06:29.992Z,103573.34
2019-03-28T07:08:59.433Z,103575.42
2019-03-28T07:11:28.895Z,103576.99
2019-03-28T07:13:58.346Z,103577.61
2019-03-28T07:16:27.795Z,103579.25
2019-03-28T07:18:57.246Z,103573.77
2019-03-28T07:21:26.976Z,103574.55
2019-03-28T07:23:55.680Z,103575.63
2019-03-28T07:26:25.638Z,103572.97
2019-03-28T07:28:55.628Z,103582.81
2019-03-28T07:31:25.095Z,103583.38
2019-03-28T07:33:54.524Z,103581.84
2019-03-28T07:36:23.983Z,103588.73
2019-03-28T07:38:53.424Z,103586.64
2019-03-28T07:41:22.877Z,103585.47
2019-03-28T07:43:52.335Z,103586.19
2019-03-28T07:46:21.785Z,103589.28
2019-03-28T07:48:51.227Z,103589.52
2019-03-28T07:51:20.682Z,103588.61
2019-03-28T07:53:50.136Z,103593.73
2019-03-28T07:56:19.573Z,103594.55
2019-03-28T07:58:49.042Z,103596.41
2019-03-28T08:01:18.513Z,103594.04
2019-03-28T08:03:47.958Z,103599.27
2019-03-28T08:06:17.455Z,103605.73
2019-03-28T08:08:46.887Z,103612.78
2019-03-28T08:11:16.393Z,103616.33
2019-03-28T08:13:45.866Z,103616.69
2019-03-28T08:16:15.333Z,103612.34
2019-03-28T08:18:45.365Z,103611.62
2019-03-28T08:21:15.034Z,103612.11
2019-03-28T08:23:45.439Z,103609.64
2019-03-28T08:26:15.032Z,103614.67
2019-03-28T08:28:54.222Z,103612.20
2019-03-28T08:31:34.176Z,103611.81
2019-03-28T08:36:54.433Z,103611.27
2019-03-28T08:39:25.168Z,103616.72
2019-03-28T08:41:54.844Z,103621.11
2019-03-28T08:44:24.314Z,103625.66
2019-03-28T08:46:53.833Z,103626.41
2019-03-28T08:49:23.271Z,103624.62
2019-03-28T08:51:52.751Z,103629.59
2019-03-28T08:54:22.247Z,103629.89
2019-03-28T08:56:51.725Z,103636.55
2019-03-28T08:59:21.187Z,103639.89
2019-03-28T09:01:50.638Z,103638.40
2019-03-28T09:04:20.081Z,103639.05
2019-03-28T09:06:49.557Z,103640.91
2019-03-28T09:09:21.188Z,103635.47
2019-03-28T09:11:56.026Z,103632.52
2019-03-28T09:14:25.476Z,103644.02
2019-03-28T09:16:54.927Z,103639.47
2019-03-28T09:19:24.386Z,103642.72
2019-03-28T09:21:53.842Z,103642.47
2019-03-28T09:24:23.298Z,103646.23
2019-03-28T09:26:52.760Z,103646.95
2019-03-28T09:29:22.286Z,103650.03
2019-03-28T09:31:51.895Z,103656.14
2019-03-28T09:34:21.373Z,103654.30
2019-03-28T09:36:50.821Z,103653.64
2019-03-28T09:39:20.260Z,103652.77
2019-03-28T09:41:49.729Z,103648.02
2019-03-28T09:44:19.174Z,103646.00
2019-03-28T09:46:48.625Z,103643.86
2019-03-28T09:49:18.097Z,103649.22
2019-03-28T09:51:47.545Z,103650.97
2019-03-28T09:54:16.988Z,103643.10
2019-03-28T09:56:46.462Z,103639.81
2019-03-28T09:59:15.894Z,103641.02
2019-03-28T10:01:45.345Z,103644.27
2019-03-28T10:04:14.802Z,103650.28
2019-03-28T10:06:44.247Z,103648.58
2019-03-28T10:09:13.709Z,103639.11
2019-03-28T10:11:43.182Z,103637.91
2019-03-28T10:14:12.628Z,103639.51
2019-03-28T10:16:42.112Z,103640.58
2019-03-28T10:19:11.908Z,103642.38
2019-03-28T10:21:41.975Z,103640.28
2019-03-28T10:24:11.650Z,103641.56
2019-03-28T10:26:41.636Z,103643.20
2019-03-28T10:29:10.602Z,103648.70
2019-03-28T10:31:41.294Z,103648.22
2019-03-28T10:34:11.117Z,103653.98
2019-03-28T10:36:39.818Z,103660.64
2019-03-28T10:39:10.515Z,103656.81
2019-03-28T10:41:40.248Z,103661.06
2019-03-28T10:44:09.049Z,103659.14
2019-03-28T10:46:38.526Z,103663.30
2019-03-28T10:49:07.979Z,103664.25
2019-03-28T10:51:37.489Z,103666.67
2019-03-28T10:54:19.322Z,103665.44
2019-03-28T10:56:51.007Z,103665.36
2019-03-28T10:59:22.351Z,103656.83
2019-03-28T11:01:49.172Z,103654.23
2019-03-28T11:04:12.196Z,103656.86
2019-03-28T11:06:41.645Z,103656.23
2019-03-28T11:09:11.166Z,103655.58
2019-03-28T11:11:40.630Z,103657.19
2019-03-28T11:14:10.079Z,103661.02
2019-03-28T11:17:15.548Z,103658.23
2019-03-28T11:19:28.791Z,103658.92
2019-03-28T11:21:58.520Z,103654.52
2019-03-28T11:24:27.234Z,103655.88
2019-03-28T11:26:57.674Z,103659.63
2019-03-28T11:29:27.181Z,103657.67
2019-03-28T11:31:56.629Z,103657.62
2019-03-28T11:34:26.078Z,103656.09
2019-03-28T11:36:55.549Z,103659.61
2019-03-28T11:39:24.986Z,103661.09
2019-03-28T11:41:54.452Z,103655.27
2019-03-28T11:44:23.917Z,103644.40
2019-03-28T11:46:53.368Z,103649.17
2019-03-28T11:49:22.795Z,103648.02
2019-03-28T11:51:52.260Z,103648.36
2019-03-28T11:54:21.730Z,103645.08
2019-03-28T11:56:51.171Z,103645.94
2019-03-28T11:59:20.640Z,103646.52
2019-03-28T12:02:00.400Z,103647.23
2019-03-28T12:04:21.269Z,103642.22
2019-03-28T12:06:50.925Z,103645.88
2019-03-28T12:09:19.709Z,103646.95
2019-03-28T12:11:49.129Z,103646.70
2019-03-28T12:14:18.590Z,103645.13
2019-03-28T12:16:48.035Z,103639.58
2019-03-28T12:19:17.848Z,103638.98
2019-03-28T12:21:47.446Z,103637.52
2019-03-28T12:24:16.880Z,103635.23
2019-03-28T12:26:46.328Z,103633.14
2019-03-28T12:29:15.813Z,103631.20
2019-03-28T12:31:45.263Z,103633.64
2019-03-28T12:34:14.744Z,103634.52
2019-03-28T12:36:44.691Z,103632.38
2019-03-28T12:39:15.795Z,103630.48
2019-03-28T12:41:45.347Z,103635.20
2019-03-28T12:44:14.796Z,103632.58
2019-03-28T12:46:44.260Z,103626.03
2019-03-28T12:49:13.723Z,103621.27
2019-03-28T12:51:43.181Z,103619.52
2019-03-28T12:54:12.622Z,103620.08
2019-03-28T12:56:42.074Z,103619.12
2019-03-28T12:59:11.531Z,103618.38
2019-03-28T13:01:40.981Z,103617.96
2019-03-28T13:04:10.435Z,103610.85
2019-03-28T13:06:39.902Z,103607.12
2019-03-28T13:09:10.280Z,103604.95
2019-03-28T13:11:39.751Z,103607.48
2019-03-28T13:14:09.239Z,103605.05
2019-03-28T13:16:38.679Z,103601.38
2019-03-28T13:19:08.148Z,103601.16
2019-03-28T13:21:37.628Z,103598.52
2019-03-28T13:24:07.975Z,103596.55
2019-03-28T13:26:37.736Z,103596.36
2019-03-28T13:29:07.305Z,103599.34
2019-03-28T13:31:36.739Z,103595.73
2019-03-28T13:34:06.119Z,103594.22
2019-03-28T13:36:35.540Z,103590.64
2019-03-28T13:39:07.646Z,103584.19
2019-03-28T13:41:37.076Z,103581.67
2019-03-28T13:44:06.480Z,103580.82
2019-03-28T13:46:35.870Z,103579.55
2019-03-28T13:49:05.264Z,103576.91
2019-03-28T13:51:34.711Z,103575.95
2019-03-28T13:54:04.112Z,103576.27
2019-03-28T13:56:33.784Z,103576.22
2019-03-28T13:59:02.479Z,103571.65
2019-03-28T14:01:31.891Z,103569.00
2019-03-28T14:04:01.311Z,103569.02
2019-03-28T14:06:30.878Z,103571.68
2019-03-28T14:09:00.231Z,103565.48
2019-03-28T14:11:29.637Z,103564.16
2019-03-28T14:13:59.053Z,103568.64
2019-03-28T14:16:28.457Z,103563.91
2019-03-28T14:18:57.857Z,103567.82
2019-03-28T14:21:27.268Z,103562.91
2019-03-28T14:23:56.668Z,103564.91
2019-03-28T14:26:26.089Z,103560.48
2019-03-28T14:28:55.539Z,103558.64
2019-03-28T14:31:25.023Z,103558.27
2019-03-28T14:34:06.935Z,103549.91
2019-03-28T14:36:36.293Z,103553.15
2019-03-28T14:39:08.094Z,103553.20
2019-03-28T14:41:37.519Z,103552.07
2019-03-28T14:44:06.923Z,103550.77
2019-03-28T14:46:36.320Z,103551.23
2019-03-28T14:49:05.860Z,103550.79
2019-03-28T14:51:35.553Z,103554.16
2019-03-28T14:54:04.970Z,103550.20
2019-03-28T14:56:34.692Z,103547.35
2019-03-28T14:59:04.027Z,103550.17
2019-03-28T15:01:33.377Z,103549.70
2019-03-28T15:04:02.795Z,103546.04
2019-03-28T15:06:32.196Z,103544.78
2019-03-28T15:09:01.585Z,103548.50
2019-03-28T15:11:31.007Z,103549.73
2019-03-28T15:14:00.405Z,103549.80
2019-03-28T15:16:29.812Z,103550.59
2019-03-28T15:18:59.220Z,103547.75
2019-03-28T15:21:28.618Z,103541.84
2019-03-28T15:23:58.017Z,103543.49
2019-03-28T15:26:30.140Z,103537.06
2019-03-28T15:28:58.561Z,103537.68
2019-03-28T15:31:27.951Z,103539.26
2019-03-28T15:33:57.356Z,103532.69
2019-03-28T15:36:27.441Z,103539.05
2019-03-28T15:38:57.131Z,103537.08
2019-03-28T15:41:26.537Z,103534.59
2019-03-28T15:43:55.952Z,103535.77
2019-03-28T15:46:25.715Z,103534.75
2019-03-28T15:48:55.206Z,103532.84
2019-03-28T15:51:24.605Z,103527.96
2019-03-28T15:53:54.009Z,103530.02
2019-03-28T15:56:23.425Z,103526.98
2019-03-28T15:58:52.833Z,103525.91
2019-03-28T16:01:30.088Z,103525.27
2019-03-28T16:03:59.494Z,103524.34
2019-03-28T16:06:28.896Z,103527.87
2019-03-28T16:08:58.464Z,103526.80
2019-03-28T16:11:27.883Z,103529.45
2019-03-28T16:13:57.246Z,103528.37
2019-03-28T16:16:26.660Z,103525.97
2019-03-28T16:18:56.073Z,103525.96
2019-03-28T16:21:26.902Z,103527.90
2019-03-28T16:23:56.478Z,103529.06
2019-03-28T16:26:43.172Z,103534.54
2019-03-28T16:29:12.601Z,103538.51
2019-03-28T16:31:42.884Z,103535.34
2019-03-28T16:34:12.373Z,103537.27
2019-03-28T16:36:41.820Z,103534.23
2019-03-28T16:39:11.452Z,103532.69
2019-03-28T16:41:40.843Z,103533.16
2019-03-28T16:44:10.279Z,103534.59
2019-03-28T16:46:39.659Z,103531.34
2019-03-28T16:49:09.150Z,103526.81
2019-03-28T16:51:38.556Z,103523.91
2019-03-28T16:54:07.955Z,103523.12
2019-03-28T16:56:37.362Z,103519.91
2019-03-28T16:59:06.943Z,103514.77
2019-03-28T17:01:36.332Z,103514.41
2019-03-28T17:04:05.800Z,103511.49
2019-03-28T17:06:35.385Z,103513.02
2019-03-28T17:09:07.556Z,103511.00
2019-03-28T17:11:36.962Z,103502.98
2019-03-28T17:14:06.399Z,103506.84
2019-03-28T17:16:35.798Z,103509.55
2019-03-28T17:19:05.261Z,103516.55
2019-03-28T17:21:34.686Z,103516.70
2019-03-28T17:24:04.327Z,103514.52
2019-03-28T17:26:32.991Z,103518.37
2019-03-28T17:29:02.375Z,103522.20
2019-03-28T17:31:31.791Z,103518.12
2019-03-28T17:34:01.189Z,103519.70
2019-03-28T17:36:30.624Z,103518.22
2019-03-28T17:39:00.043Z,103516.53
2019-03-28T17:41:29.432Z,103519.87
2019-03-28T17:43:58.842Z,103518.77
2019-03-28T17:46:28.232Z,103520.70
2019-03-28T17:48:58.815Z,103515.86
2019-03-28T17:51:29.048Z,103519.47
2019-03-28T17:53:58.452Z,103522.34
2019-03-28T17:56:29.738Z,103525.30
2019-03-28T17:58:59.229Z,103525.98
2019-03-28T18:01:28.638Z,103527.05
2019-03-28T18:03:58.035Z,103530.23
2019-03-28T18:06:27.444Z,103536.38
2019-03-28T18:08:56.835Z,103536.65
2019-03-28T18:11:26.233Z,103534.95
2019-03-28T18:13:55.641Z,103534.63
2019-03-28T18:16:25.289Z,103533.50
2019-03-28T18:18:53.948Z,103534.59
2019-03-28T18:21:23.326Z,103539.64
2019-03-28T18:23:52.721Z,103539.16
2019-03-28T18:26:22.116Z,103532.34
2019-03-28T18:28:51.550Z,103532.84
2019-03-28T18:31:20.937Z,103536.31
2019-03-28T18:33:50.349Z,103536.58
2019-03-28T18:36:19.746Z,103536.75
2019-03-28T18:38:52.283Z,103535.05
2019-03-28T18:41:20.263Z,103544.08
2019-03-28T18:43:49.824Z,103548.22
2019-03-28T18:46:19.449Z,103551.17
2019-03-28T18:48:48.861Z,103552.00
2019-03-28T18:51:18.263Z,103550.01
2019-03-28T18:53:47.661Z,103552.33
2019-03-28T18:56:17.057Z,103550.30
2019-03-28T18:58:46.460Z,103553.84
2019-03-28T19:01:15.857Z,103555.13
2019-03-28T19:03:45.252Z,103551.34
2019-03-28T19:06:15.215Z,103554.60
2019-03-28T19:08:45.490Z,103551.09
2019-03-28T19:11:14.890Z,103552.50
2019-03-28T19:13:44.295Z,103549.81
2019-03-28T19:16:13.691Z,103548.55
2019-03-28T19:18:43.093Z,103551.06
2019-03-28T19:21:12.514Z,103549.03
2019-03-28T19:23:41.906Z,103551.19
2019-03-28T19:26:11.374Z,103549.16
2019-03-28T19:28:40.779Z,103549.95
2019-03-28T19:31:10.182Z,103548.84
2019-03-28T19:33:40.894Z,103549.01
2019-03-28T19:36:10.819Z,103546.96
2019-03-28T19:38:40.348Z,103549.17
2019-03-28T19:41:10.000Z,103551.30
2019-03-28T19:43:39.724Z,103552.69
2019-03-28T19:46:08.376Z,103549.53
2019-03-28T19:48:37.736Z,103544.73
2019-03-28T19:51:07.869Z,103542.82
2019-03-28T19:53:37.316Z,103546.13
2019-03-28T19:56:06.711Z,103548.48
2019-03-28T19:58:36.132Z,103541.65
2019-03-28T20:01:06.463Z,103538.57
2019-03-28T20:03:35.863Z,103538.15
2019-03-28T20:06:06.421Z,103531.31
2019-03-28T20:08:35.816Z,103535.61
2019-03-28T20:11:05.510Z,103533.18
2019-03-28T20:13:34.147Z,103536.01
2019-03-28T20:16:03.572Z,103537.67
2019-03-28T20:18:32.972Z,103544.16
2019-03-28T20:21:02.627Z,103544.30
2019-03-28T20:23:31.280Z,103545.44
2019-03-28T20:26:00.636Z,103555.16
2019-03-28T20:28:30.061Z,103557.77
2019-03-28T20:30:59.439Z,103554.09
2019-03-28T20:33:28.832Z,103555.08
2019-03-28T20:36:13.510Z,103557.53
2019-03-28T20:38:29.915Z,103562.23
2019-03-28T20:40:59.609Z,103562.05
2019-03-28T20:43:29.014Z,103565.20
2019-03-28T20:45:58.412Z,103562.61
2019-03-28T20:48:27.808Z,103562.33
2019-03-28T20:50:57.869Z,103561.76
2019-03-28T20:53:27.562Z,103570.44
2019-03-28T20:55:56.966Z,103569.89
2019-03-28T20:58:26.374Z,103573.76
2019-03-28T21:00:55.903Z,103567.78
2019-03-28T21:03:25.375Z,103572.59
2019-03-28T21:06:15.110Z,103568.66
2019-03-28T21:08:37.094Z,103571.16
2019-03-28T21:11:07.339Z,103567.73
2019-03-28T21:13:36.825Z,103570.50
2019-03-28T21:16:06.214Z,103570.50
2019-03-28T21:18:35.603Z,103567.66
2019-03-28T21:21:05.026Z,103570.76
2019-03-28T21:23:34.424Z,103567.17
2019-03-28T21:26:03.803Z,103569.13
2019-03-28T21:28:46.185Z,103571.15
2019-03-28T21:31:04.662Z,103565.45
2019-03-28T21:33:34.052Z,103570.33
2019-03-28T21:36:04.207Z,103573.42
2019-03-28T21:38:33.633Z,103566.91
2019-03-28T21:41:03.025Z,103566.59
2019-03-28T21:43:32.524Z,103567.30
2019-03-28T21:46:02.059Z,103566.75
2019-03-28T21:48:31.471Z,103570.17
2019-03-28T21:51:00.951Z,103575.05
2019-03-28T21:53:30.319Z,103571.21
2019-03-28T21:56:55.391Z,103572.89
2019-03-28T21:59:24.790Z,103577.42
2019-03-28T22:01:54.169Z,103574.89
2019-03-28T22:04:23.751Z,103570.54
2019-03-28T22:06:53.145Z,103575.63
2019-03-28T22:09:22.545Z,103576.91
2019-03-28T22:11:51.953Z,103579.63
2019-03-28T22:14:21.412Z,103579.94
2019-03-28T22:16:50.815Z,103568.57
2019-03-28T22:19:20.220Z,103564.52
2019-03-28T22:21:49.613Z,103560.97
2019-03-28T22:24:19.245Z,103559.83
2019-03-28T22:26:48.659Z,103561.13
2019-03-28T22:29:18.043Z,103562.56
2019-03-28T22:31:47.438Z,103559.27
2019-03-28T22:34:16.847Z,103555.73
2019-03-28T22:36:56.459Z,103556.95
2019-03-28T22:39:17.356Z,103554.36
2019-03-28T22:41:46.756Z,103552.48
2019-03-28T22:44:16.161Z,103558.47
2019-03-28T22:46:45.553Z,103555.48
2019-03-28T22:49:14.977Z,103550.76
2019-03-28T22:51:44.365Z,103548.68
2019-03-28T22:54:13.765Z,103547.32
2019-03-28T22:56:43.171Z,103545.12
2019-03-28T22:59:12.569Z,103538.81
2019-03-28T23:01:42.032Z,103539.91
2019-03-28T23:04:12.887Z,103529.44
2019-03-28T23:06:42.359Z,103531.30
2019-03-28T23:09:11.754Z,103524.28
2019-03-28T23:11:41.745Z,103521.06
2019-03-28T23:14:12.071Z,103520.12
2019-03-28T23:16:41.468Z,103516.00
2019-03-28T23:19:12.132Z,103510.41
2019-03-28T23:21:41.900Z,103508.13
2019-03-28T23:24:11.293Z,103506.83
2019-03-28T23:26:40.703Z,103509.11
2019-03-28T23:29:10.209Z,103509.44
2019-03-28T23:31:40.270Z,103504.27
2019-03-28T23:34:09.680Z,103511.12
2019-03-28T23:36:39.075Z,103503.28
2019-03-28T23:39:08.933Z,103500.98
2019-03-28T23:41:38.346Z,103499.88
2019-03-28T23:44:07.743Z,103491.59
2019-03-28T23:46:37.211Z,103492.77
2019-03-28T23:49:07.204Z,103491.02
2019-03-28T23:51:36.605Z,103486.63
2019-03-28T23:54:06.066Z,103480.22
2019-03-28T23:56:35.495Z,103478.85
2019-03-28T23:59:05.725Z,103482.82
